sensor_id;sensor_type;location;lat;lon;timestamp;P1;durP1;ratioP1;P2;durP2;ratioP2
26191;SDS011;13935;55.672;37.764;2023-03-03T00:00:25;9.68;;;3.55;;
26191;SDS011;13935;55.672;37.764;2023-03-03T00:01:35;9.52;;;3.30;;
26191;SDS011;13935;55.672;37.764;2023-03-03T00:02:46;10.20;;;3.67;;
26191;SDS011;13935;55.672;37.764;2023-03-03T00:03:56;7.82;;;3.42;;
26191;SDS011;13935;55.672;37.764;2023-03-03T00:05:08;6.88;;;3.20;;
26191;SDS011;13935;55.672;37.764;2023-03-03T00:06:13;7.38;;;3.25;;
26191;SDS011;13935;55.672;37.764;2023-03-03T00:08:28;9.23;;;3.30;;
26191;SDS011;13935;55.672;37.764;2023-03-03T00:09:36;7.03;;;3.05;;
26191;SDS011;13935;55.672;37.764;2023-03-03T00:10:46;5.82;;;2.53;;
26191;SDS011;13935;55.672;37.764;2023-03-03T00:11:55;7.70;;;3.10;;
26191;SDS011;13935;55.672;37.764;2023-03-03T00:13:12;6.90;;;2.85;;
26191;SDS011;13935;55.672;37.764;2023-03-03T00:14:22;7.40;;;3.20;;
26191;SDS011;13935;55.672;37.764;2023-03-03T00:15:44;9.00;;;3.13;;
26191;SDS011;13935;55.672;37.764;2023-03-03T00:16:50;9.25;;;3.30;;
26191;SDS011;13935;55.672;37.764;2023-03-03T00:18:25;7.35;;;2.58;;
26191;SDS011;13935;55.672;37.764;2023-03-03T00:19:36;9.15;;;3.05;;
26191;SDS011;13935;55.672;37.764;2023-03-03T00:20:48;6.38;;;2.92;;
26191;SDS011;13935;55.672;37.764;2023-03-03T00:21:59;8.80;;;3.00;;
26191;SDS011;13935;55.672;37.764;2023-03-03T00:24:35;7.45;;;2.42;;
26191;SDS011;13935;55.672;37.764;2023-03-03T00:25:45;7.93;;;2.63;;
26191;SDS011;13935;55.672;37.764;2023-03-03T00:26:53;7.72;;;2.50;;
26191;SDS011;13935;55.672;37.764;2023-03-03T00:28:22;8.38;;;2.47;;
26191;SDS011;13935;55.672;37.764;2023-03-03T00:29:36;8.82;;;2.65;;
26191;SDS011;13935;55.672;37.764;2023-03-03T00:30:48;6.45;;;2.63;;
26191;SDS011;13935;55.672;37.764;2023-03-03T00:33:50;7.63;;;3.17;;
26191;SDS011;13935;55.672;37.764;2023-03-03T00:35:16;5.55;;;2.50;;
26191;SDS011;13935;55.672;37.764;2023-03-03T00:36:35;8.70;;;2.40;;
26191;SDS011;13935;55.672;37.764;2023-03-03T00:37:48;5.90;;;2.83;;
26191;SDS011;13935;55.672;37.764;2023-03-03T00:43:48;9.00;;;2.17;;
26191;SDS011;13935;55.672;37.764;2023-03-03T00:52:27;7.57;;;2.50;;
26191;SDS011;13935;55.672;37.764;2023-03-03T00:54:14;11.45;;;3.45;;
26191;SDS011;13935;55.672;37.764;2023-03-03T00:55:27;7.45;;;2.92;;
26191;SDS011;13935;55.672;37.764;2023-03-03T00:56:36;8.40;;;2.65;;
26191;SDS011;13935;55.672;37.764;2023-03-03T00:57:46;6.97;;;3.47;;
26191;SDS011;13935;55.672;37.764;2023-03-03T00:59:04;10.35;;;4.38;;
26191;SDS011;13935;55.672;37.764;2023-03-03T01:01:31;6.80;;;2.45;;
26191;SDS011;13935;55.672;37.764;2023-03-03T01:02:42;5.63;;;2.97;;
26191;SDS011;13935;55.672;37.764;2023-03-03T01:03:51;5.65;;;2.45;;
26191;SDS011;13935;55.672;37.764;2023-03-03T01:05:13;6.78;;;2.45;;
26191;SDS011;13935;55.672;37.764;2023-03-03T01:06:39;6.35;;;2.70;;
26191;SDS011;13935;55.672;37.764;2023-03-03T01:08:14;6.32;;;3.08;;
26191;SDS011;13935;55.672;37.764;2023-03-03T01:09:38;7.90;;;2.78;;
26191;SDS011;13935;55.672;37.764;2023-03-03T01:10:49;6.65;;;2.67;;
26191;SDS011;13935;55.672;37.764;2023-03-03T01:11:58;9.07;;;2.97;;
26191;SDS011;13935;55.672;37.764;2023-03-03T01:13:04;10.10;;;2.90;;
26191;SDS011;13935;55.672;37.764;2023-03-03T01:14:15;7.78;;;2.72;;
26191;SDS011;13935;55.672;37.764;2023-03-03T01:15:24;6.28;;;2.42;;
26191;SDS011;13935;55.672;37.764;2023-03-03T01:16:43;6.28;;;2.50;;
26191;SDS011;13935;55.672;37.764;2023-03-03T01:17:53;14.30;;;2.95;;
26191;SDS011;13935;55.672;37.764;2023-03-03T01:19:09;6.57;;;2.42;;
26191;SDS011;13935;55.672;37.764;2023-03-03T01:20:19;8.23;;;2.53;;
26191;SDS011;13935;55.672;37.764;2023-03-03T01:21:34;7.93;;;2.50;;
26191;SDS011;13935;55.672;37.764;2023-03-03T01:22:42;8.50;;;2.42;;
26191;SDS011;13935;55.672;37.764;2023-03-03T01:24:00;8.17;;;3.20;;
26191;SDS011;13935;55.672;37.764;2023-03-03T01:25:08;10.57;;;3.40;;
26191;SDS011;13935;55.672;37.764;2023-03-03T01:26:24;6.13;;;2.50;;
26191;SDS011;13935;55.672;37.764;2023-03-03T01:27:31;8.45;;;2.50;;
26191;SDS011;13935;55.672;37.764;2023-03-03T01:28:50;5.60;;;2.67;;
26191;SDS011;13935;55.672;37.764;2023-03-03T01:29:58;7.88;;;2.83;;
26191;SDS011;13935;55.672;37.764;2023-03-03T01:31:07;6.00;;;2.47;;
26191;SDS011;13935;55.672;37.764;2023-03-03T01:32:12;7.38;;;2.78;;
26191;SDS011;13935;55.672;37.764;2023-03-03T01:33:19;6.75;;;2.55;;
26191;SDS011;13935;55.672;37.764;2023-03-03T01:34:36;10.65;;;2.97;;
26191;SDS011;13935;55.672;37.764;2023-03-03T01:36:01;7.68;;;2.75;;
26191;SDS011;13935;55.672;37.764;2023-03-03T01:37:09;6.18;;;2.53;;
26191;SDS011;13935;55.672;37.764;2023-03-03T01:38:21;6.65;;;2.63;;
26191;SDS011;13935;55.672;37.764;2023-03-03T01:39:34;6.82;;;2.30;;
26191;SDS011;13935;55.672;37.764;2023-03-03T01:43:55;7.55;;;2.60;;
26191;SDS011;13935;55.672;37.764;2023-03-03T01:45:17;7.15;;;2.63;;
26191;SDS011;13935;55.672;37.764;2023-03-03T01:47:46;8.98;;;3.03;;
26191;SDS011;13935;55.672;37.764;2023-03-03T01:49:06;7.95;;;2.60;;
26191;SDS011;13935;55.672;37.764;2023-03-03T01:53:20;10.63;;;3.15;;
26191;SDS011;13935;55.672;37.764;2023-03-03T01:54:46;9.63;;;2.80;;
26191;SDS011;13935;55.672;37.764;2023-03-03T01:56:00;11.05;;;3.15;;
26191;SDS011;13935;55.672;37.764;2023-03-03T01:57:15;5.70;;;2.70;;
26191;SDS011;13935;55.672;37.764;2023-03-03T01:58:27;6.90;;;2.72;;
26191;SDS011;13935;55.672;37.764;2023-03-03T01:59:46;11.35;;;3.25;;
26191;SDS011;13935;55.672;37.764;2023-03-03T02:00:59;9.05;;;2.97;;
26191;SDS011;13935;55.672;37.764;2023-03-03T02:02:08;6.78;;;2.70;;
26191;SDS011;13935;55.672;37.764;2023-03-03T02:03:17;6.88;;;3.05;;
26191;SDS011;13935;55.672;37.764;2023-03-03T02:04:28;4.85;;;2.38;;
26191;SDS011;13935;55.672;37.764;2023-03-03T02:05:48;8.23;;;2.67;;
26191;SDS011;13935;55.672;37.764;2023-03-03T02:06:59;9.35;;;2.60;;
26191;SDS011;13935;55.672;37.764;2023-03-03T02:08:12;5.82;;;2.78;;
26191;SDS011;13935;55.672;37.764;2023-03-03T02:11:06;7.68;;;3.10;;
26191;SDS011;13935;55.672;37.764;2023-03-03T02:12:53;10.80;;;3.30;;
26191;SDS011;13935;55.672;37.764;2023-03-03T02:14:01;9.38;;;3.40;;
26191;SDS011;13935;55.672;37.764;2023-03-03T02:15:20;7.10;;;3.13;;
26191;SDS011;13935;55.672;37.764;2023-03-03T02:16:33;8.77;;;2.70;;
26191;SDS011;13935;55.672;37.764;2023-03-03T02:17:52;8.55;;;3.72;;
26191;SDS011;13935;55.672;37.764;2023-03-03T02:19:01;9.70;;;3.50;;
26191;SDS011;13935;55.672;37.764;2023-03-03T02:21:38;8.63;;;2.90;;
26191;SDS011;13935;55.672;37.764;2023-03-03T02:22:50;7.47;;;2.80;;
26191;SDS011;13935;55.672;37.764;2023-03-03T02:24:15;6.75;;;3.10;;
26191;SDS011;13935;55.672;37.764;2023-03-03T02:25:39;7.72;;;3.25;;
26191;SDS011;13935;55.672;37.764;2023-03-03T02:27:01;6.97;;;2.80;;
26191;SDS011;13935;55.672;37.764;2023-03-03T02:28:35;8.98;;;3.88;;
26191;SDS011;13935;55.672;37.764;2023-03-03T02:29:50;8.25;;;3.00;;
26191;SDS011;13935;55.672;37.764;2023-03-03T02:30:59;7.45;;;3.10;;
26191;SDS011;13935;55.672;37.764;2023-03-03T02:32:12;6.30;;;2.80;;
26191;SDS011;13935;55.672;37.764;2023-03-03T02:33:21;7.20;;;3.33;;
26191;SDS011;13935;55.672;37.764;2023-03-03T02:35:28;8.15;;;3.30;;
26191;SDS011;13935;55.672;37.764;2023-03-03T02:36:55;9.10;;;3.53;;
26191;SDS011;13935;55.672;37.764;2023-03-03T02:38:03;9.77;;;3.20;;
26191;SDS011;13935;55.672;37.764;2023-03-03T02:39:33;10.38;;;3.97;;
26191;SDS011;13935;55.672;37.764;2023-03-03T02:40:41;7.13;;;3.38;;
26191;SDS011;13935;55.672;37.764;2023-03-03T02:44:20;8.80;;;3.38;;
26191;SDS011;13935;55.672;37.764;2023-03-03T02:46:43;8.70;;;3.28;;
26191;SDS011;13935;55.672;37.764;2023-03-03T02:47:57;7.85;;;3.45;;
26191;SDS011;13935;55.672;37.764;2023-03-03T02:49:03;10.40;;;4.68;;
26191;SDS011;13935;55.672;37.764;2023-03-03T02:50:19;13.27;;;4.10;;
26191;SDS011;13935;55.672;37.764;2023-03-03T02:51:29;10.65;;;3.72;;
26191;SDS011;13935;55.672;37.764;2023-03-03T02:52:35;9.52;;;3.50;;
26191;SDS011;13935;55.672;37.764;2023-03-03T02:53:41;9.73;;;3.72;;
26191;SDS011;13935;55.672;37.764;2023-03-03T02:56:16;7.60;;;3.00;;
26191;SDS011;13935;55.672;37.764;2023-03-03T02:57:25;7.88;;;3.08;;
26191;SDS011;13935;55.672;37.764;2023-03-03T02:58:32;10.35;;;3.60;;
26191;SDS011;13935;55.672;37.764;2023-03-03T02:59:41;7.95;;;3.70;;
26191;SDS011;13935;55.672;37.764;2023-03-03T03:00:48;7.60;;;3.55;;
26191;SDS011;13935;55.672;37.764;2023-03-03T03:02:00;9.13;;;4.00;;
26191;SDS011;13935;55.672;37.764;2023-03-03T03:03:07;11.18;;;3.75;;
26191;SDS011;13935;55.672;37.764;2023-03-03T03:04:42;7.97;;;3.60;;
26191;SDS011;13935;55.672;37.764;2023-03-03T03:05:56;9.68;;;3.92;;
26191;SDS011;13935;55.672;37.764;2023-03-03T03:07:31;10.70;;;4.00;;
26191;SDS011;13935;55.672;37.764;2023-03-03T03:08:42;12.73;;;4.30;;
26191;SDS011;13935;55.672;37.764;2023-03-03T03:09:47;10.10;;;4.38;;
26191;SDS011;13935;55.672;37.764;2023-03-03T03:10:57;10.15;;;4.25;;
26191;SDS011;13935;55.672;37.764;2023-03-03T03:12:11;8.20;;;4.00;;
26191;SDS011;13935;55.672;37.764;2023-03-03T03:13:28;10.40;;;3.95;;
26191;SDS011;13935;55.672;37.764;2023-03-03T03:14:40;9.30;;;3.90;;
26191;SDS011;13935;55.672;37.764;2023-03-03T03:15:51;8.65;;;3.90;;
26191;SDS011;13935;55.672;37.764;2023-03-03T03:17:05;8.55;;;3.92;;
26191;SDS011;13935;55.672;37.764;2023-03-03T03:18:25;11.00;;;3.95;;
26191;SDS011;13935;55.672;37.764;2023-03-03T03:20:06;7.35;;;3.40;;
26191;SDS011;13935;55.672;37.764;2023-03-03T03:21:17;10.70;;;4.00;;
26191;SDS011;13935;55.672;37.764;2023-03-03T03:22:30;8.20;;;3.40;;
26191;SDS011;13935;55.672;37.764;2023-03-03T03:23:47;9.90;;;3.55;;
26191;SDS011;13935;55.672;37.764;2023-03-03T03:24:57;11.85;;;3.70;;
26191;SDS011;13935;55.672;37.764;2023-03-03T03:26:04;11.10;;;3.80;;
26191;SDS011;13935;55.672;37.764;2023-03-03T03:27:24;8.88;;;3.67;;
26191;SDS011;13935;55.672;37.764;2023-03-03T03:28:37;11.80;;;4.10;;
26191;SDS011;13935;55.672;37.764;2023-03-03T03:29:50;9.48;;;3.83;;
26191;SDS011;13935;55.672;37.764;2023-03-03T03:31:02;8.32;;;3.08;;
26191;SDS011;13935;55.672;37.764;2023-03-03T03:32:10;8.70;;;3.55;;
26191;SDS011;13935;55.672;37.764;2023-03-03T03:33:23;6.63;;;3.42;;
26191;SDS011;13935;55.672;37.764;2023-03-03T03:34:49;11.13;;;4.07;;
26191;SDS011;13935;55.672;37.764;2023-03-03T03:36:00;8.75;;;3.80;;
26191;SDS011;13935;55.672;37.764;2023-03-03T03:37:12;9.40;;;3.53;;
26191;SDS011;13935;55.672;37.764;2023-03-03T03:38:20;8.98;;;3.88;;
26191;SDS011;13935;55.672;37.764;2023-03-03T03:39:30;9.15;;;3.75;;
26191;SDS011;13935;55.672;37.764;2023-03-03T03:40:42;8.63;;;3.28;;
26191;SDS011;13935;55.672;37.764;2023-03-03T03:42:07;6.28;;;3.20;;
26191;SDS011;13935;55.672;37.764;2023-03-03T03:43:15;6.32;;;3.28;;
26191;SDS011;13935;55.672;37.764;2023-03-03T03:44:23;10.15;;;3.60;;
26191;SDS011;13935;55.672;37.764;2023-03-03T03:45:32;10.85;;;3.58;;
26191;SDS011;13935;55.672;37.764;2023-03-03T03:46:42;10.27;;;4.05;;
26191;SDS011;13935;55.672;37.764;2023-03-03T03:47:47;8.88;;;3.85;;
26191;SDS011;13935;55.672;37.764;2023-03-03T03:49:18;8.85;;;3.75;;
26191;SDS011;13935;55.672;37.764;2023-03-03T03:50:31;9.27;;;3.83;;
26191;SDS011;13935;55.672;37.764;2023-03-03T03:52:12;10.48;;;3.50;;
26191;SDS011;13935;55.672;37.764;2023-03-03T03:53:30;8.23;;;3.63;;
26191;SDS011;13935;55.672;37.764;2023-03-03T03:54:39;12.73;;;4.18;;
26191;SDS011;13935;55.672;37.764;2023-03-03T03:55:51;13.00;;;4.82;;
26191;SDS011;13935;55.672;37.764;2023-03-03T03:57:00;11.80;;;3.70;;
26191;SDS011;13935;55.672;37.764;2023-03-03T03:58:12;8.77;;;3.80;;
26191;SDS011;13935;55.672;37.764;2023-03-03T03:59:29;8.70;;;4.05;;
26191;SDS011;13935;55.672;37.764;2023-03-03T04:00:36;9.57;;;3.65;;
26191;SDS011;13935;55.672;37.764;2023-03-03T04:01:53;8.20;;;3.78;;
26191;SDS011;13935;55.672;37.764;2023-03-03T04:03:04;8.13;;;3.70;;
26191;SDS011;13935;55.672;37.764;2023-03-03T04:04:20;11.65;;;4.40;;
26191;SDS011;13935;55.672;37.764;2023-03-03T04:08:21;11.13;;;3.97;;
26191;SDS011;13935;55.672;37.764;2023-03-03T04:09:29;9.40;;;3.80;;
26191;SDS011;13935;55.672;37.764;2023-03-03T04:10:43;11.20;;;4.10;;
26191;SDS011;13935;55.672;37.764;2023-03-03T04:11:55;11.55;;;5.05;;
26191;SDS011;13935;55.672;37.764;2023-03-03T04:13:12;9.82;;;4.70;;
26191;SDS011;13935;55.672;37.764;2023-03-03T04:14:24;10.73;;;4.30;;
26191;SDS011;13935;55.672;37.764;2023-03-03T04:15:47;14.70;;;4.18;;
26191;SDS011;13935;55.672;37.764;2023-03-03T04:16:54;9.95;;;3.95;;
26191;SDS011;13935;55.672;37.764;2023-03-03T04:17:59;10.15;;;4.15;;
26191;SDS011;13935;55.672;37.764;2023-03-03T04:19:15;7.28;;;3.63;;
26191;SDS011;13935;55.672;37.764;2023-03-03T04:20:26;8.98;;;3.80;;
26191;SDS011;13935;55.672;37.764;2023-03-03T04:21:32;11.05;;;4.00;;
26191;SDS011;13935;55.672;37.764;2023-03-03T04:22:37;10.00;;;4.47;;
26191;SDS011;13935;55.672;37.764;2023-03-03T04:23:44;8.18;;;4.38;;
26191;SDS011;13935;55.672;37.764;2023-03-03T04:24:51;14.68;;;4.05;;
26191;SDS011;13935;55.672;37.764;2023-03-03T04:25:59;8.13;;;3.53;;
26191;SDS011;13935;55.672;37.764;2023-03-03T04:27:14;11.90;;;4.00;;
26191;SDS011;13935;55.672;37.764;2023-03-03T04:28:18;11.75;;;4.20;;
26191;SDS011;13935;55.672;37.764;2023-03-03T04:29:29;11.38;;;4.10;;
26191;SDS011;13935;55.672;37.764;2023-03-03T04:30:36;9.05;;;3.95;;
26191;SDS011;13935;55.672;37.764;2023-03-03T04:31:50;6.30;;;3.20;;
26191;SDS011;13935;55.672;37.764;2023-03-03T04:32:57;12.48;;;4.15;;
26191;SDS011;13935;55.672;37.764;2023-03-03T04:34:08;8.63;;;3.40;;
26191;SDS011;13935;55.672;37.764;2023-03-03T04:35:15;11.07;;;4.30;;
26191;SDS011;13935;55.672;37.764;2023-03-03T04:36:24;9.60;;;4.65;;
26191;SDS011;13935;55.672;37.764;2023-03-03T04:37:46;12.18;;;3.70;;
26191;SDS011;13935;55.672;37.764;2023-03-03T04:40:40;9.43;;;3.88;;
26191;SDS011;13935;55.672;37.764;2023-03-03T04:42:12;13.80;;;4.45;;
26191;SDS011;13935;55.672;37.764;2023-03-03T04:43:28;8.48;;;3.95;;
26191;SDS011;13935;55.672;37.764;2023-03-03T04:44:38;9.73;;;3.95;;
26191;SDS011;13935;55.672;37.764;2023-03-03T04:45:53;14.35;;;4.60;;
26191;SDS011;13935;55.672;37.764;2023-03-03T04:47:07;11.68;;;4.28;;
26191;SDS011;13935;55.672;37.764;2023-03-03T04:48:25;12.75;;;4.20;;
26191;SDS011;13935;55.672;37.764;2023-03-03T04:49:34;9.68;;;4.10;;
26191;SDS011;13935;55.672;37.764;2023-03-03T04:50:45;7.97;;;3.72;;
26191;SDS011;13935;55.672;37.764;2023-03-03T04:52:24;12.82;;;4.57;;
26191;SDS011;13935;55.672;37.764;2023-03-03T04:53:34;12.88;;;4.68;;
26191;SDS011;13935;55.672;37.764;2023-03-03T04:56:34;9.80;;;3.60;;
26191;SDS011;13935;55.672;37.764;2023-03-03T04:57:46;12.38;;;4.20;;
26191;SDS011;13935;55.672;37.764;2023-03-03T04:59:03;11.45;;;4.15;;
26191;SDS011;13935;55.672;37.764;2023-03-03T05:00:09;10.77;;;3.67;;
26191;SDS011;13935;55.672;37.764;2023-03-03T05:01:44;9.95;;;3.97;;
26191;SDS011;13935;55.672;37.764;2023-03-03T05:02:54;11.00;;;4.10;;
26191;SDS011;13935;55.672;37.764;2023-03-03T05:04:03;11.03;;;4.30;;
26191;SDS011;13935;55.672;37.764;2023-03-03T05:05:17;11.13;;;3.97;;
26191;SDS011;13935;55.672;37.764;2023-03-03T05:06:31;10.30;;;4.20;;
26191;SDS011;13935;55.672;37.764;2023-03-03T05:07:49;11.27;;;4.40;;
26191;SDS011;13935;55.672;37.764;2023-03-03T05:09:22;10.70;;;4.60;;
26191;SDS011;13935;55.672;37.764;2023-03-03T05:11:12;12.82;;;4.88;;
26191;SDS011;13935;55.672;37.764;2023-03-03T05:12:19;11.18;;;4.25;;
26191;SDS011;13935;55.672;37.764;2023-03-03T05:13:43;14.43;;;4.95;;
26191;SDS011;13935;55.672;37.764;2023-03-03T05:14:55;11.25;;;4.38;;
26191;SDS011;13935;55.672;37.764;2023-03-03T05:16:31;10.68;;;3.80;;
26191;SDS011;13935;55.672;37.764;2023-03-03T05:17:49;9.65;;;4.07;;
26191;SDS011;13935;55.672;37.764;2023-03-03T05:20:09;12.00;;;4.35;;
26191;SDS011;13935;55.672;37.764;2023-03-03T05:21:50;9.43;;;4.25;;
26191;SDS011;13935;55.672;37.764;2023-03-03T05:23:05;12.30;;;4.20;;
26191;SDS011;13935;55.672;37.764;2023-03-03T05:24:28;10.38;;;4.40;;
26191;SDS011;13935;55.672;37.764;2023-03-03T05:25:45;11.98;;;4.82;;
26191;SDS011;13935;55.672;37.764;2023-03-03T05:26:57;17.17;;;5.53;;
26191;SDS011;13935;55.672;37.764;2023-03-03T05:28:33;13.43;;;3.97;;
26191;SDS011;13935;55.672;37.764;2023-03-03T05:29:49;11.23;;;4.05;;
26191;SDS011;13935;55.672;37.764;2023-03-03T05:31:19;12.48;;;4.75;;
26191;SDS011;13935;55.672;37.764;2023-03-03T05:33:02;20.02;;;9.55;;
26191;SDS011;13935;55.672;37.764;2023-03-03T05:34:14;19.02;;;9.02;;
26191;SDS011;13935;55.672;37.764;2023-03-03T05:37:20;9.70;;;4.55;;
26191;SDS011;13935;55.672;37.764;2023-03-03T05:40:06;11.48;;;4.00;;
26191;SDS011;13935;55.672;37.764;2023-03-03T05:41:18;12.98;;;4.57;;
26191;SDS011;13935;55.672;37.764;2023-03-03T05:42:23;15.70;;;4.57;;
26191;SDS011;13935;55.672;37.764;2023-03-03T05:43:28;9.95;;;4.47;;
26191;SDS011;13935;55.672;37.764;2023-03-03T05:44:31;10.90;;;4.05;;
26191;SDS011;13935;55.672;37.764;2023-03-03T05:45:58;11.43;;;4.40;;
26191;SDS011;13935;55.672;37.764;2023-03-03T05:47:04;15.35;;;4.40;;
26191;SDS011;13935;55.672;37.764;2023-03-03T05:48:13;13.65;;;4.07;;
26191;SDS011;13935;55.672;37.764;2023-03-03T05:49:21;13.32;;;5.28;;
26191;SDS011;13935;55.672;37.764;2023-03-03T05:50:28;12.25;;;4.30;;
26191;SDS011;13935;55.672;37.764;2023-03-03T05:51:38;13.77;;;3.97;;
26191;SDS011;13935;55.672;37.764;2023-03-03T05:52:46;12.65;;;4.57;;
26191;SDS011;13935;55.672;37.764;2023-03-03T05:53:56;10.70;;;3.80;;
26191;SDS011;13935;55.672;37.764;2023-03-03T05:55:02;10.88;;;4.10;;
26191;SDS011;13935;55.672;37.764;2023-03-03T05:56:06;14.68;;;4.10;;
26191;SDS011;13935;55.672;37.764;2023-03-03T05:57:10;12.55;;;4.43;;
26191;SDS011;13935;55.672;37.764;2023-03-03T05:58:18;11.07;;;4.68;;
26191;SDS011;13935;55.672;37.764;2023-03-03T05:59:24;13.20;;;4.30;;
26191;SDS011;13935;55.672;37.764;2023-03-03T06:00:29;11.13;;;3.95;;
26191;SDS011;13935;55.672;37.764;2023-03-03T06:01:40;7.88;;;3.50;;
26191;SDS011;13935;55.672;37.764;2023-03-03T06:02:45;10.80;;;4.45;;
26191;SDS011;13935;55.672;37.764;2023-03-03T06:03:55;15.27;;;4.40;;
26191;SDS011;13935;55.672;37.764;2023-03-03T06:05:00;13.68;;;3.67;;
26191;SDS011;13935;55.672;37.764;2023-03-03T06:06:04;12.05;;;3.60;;
26191;SDS011;13935;55.672;37.764;2023-03-03T06:07:07;13.38;;;4.65;;
26191;SDS011;13935;55.672;37.764;2023-03-03T06:08:09;10.55;;;3.95;;
26191;SDS011;13935;55.672;37.764;2023-03-03T06:09:14;12.35;;;4.05;;
26191;SDS011;13935;55.672;37.764;2023-03-03T06:10:21;11.25;;;3.85;;
26191;SDS011;13935;55.672;37.764;2023-03-03T06:11:27;11.65;;;4.32;;
26191;SDS011;13935;55.672;37.764;2023-03-03T06:12:38;11.98;;;4.40;;
26191;SDS011;13935;55.672;37.764;2023-03-03T06:13:43;8.73;;;3.95;;
26191;SDS011;13935;55.672;37.764;2023-03-03T06:14:49;15.25;;;4.40;;
26191;SDS011;13935;55.672;37.764;2023-03-03T06:15:58;13.70;;;4.68;;
26191;SDS011;13935;55.672;37.764;2023-03-03T06:17:02;11.40;;;4.20;;
26191;SDS011;13935;55.672;37.764;2023-03-03T06:18:05;18.02;;;4.75;;
26191;SDS011;13935;55.672;37.764;2023-03-03T06:19:07;8.60;;;3.63;;
26191;SDS011;13935;55.672;37.764;2023-03-03T06:20:13;10.75;;;3.83;;
26191;SDS011;13935;55.672;37.764;2023-03-03T06:21:18;11.35;;;3.92;;
26191;SDS011;13935;55.672;37.764;2023-03-03T06:22:22;13.40;;;4.25;;
26191;SDS011;13935;55.672;37.764;2023-03-03T06:23:27;12.52;;;3.55;;
26191;SDS011;13935;55.672;37.764;2023-03-03T06:24:32;12.82;;;4.32;;
26191;SDS011;13935;55.672;37.764;2023-03-03T06:25:37;13.38;;;4.38;;
26191;SDS011;13935;55.672;37.764;2023-03-03T06:26:43;15.40;;;4.63;;
26191;SDS011;13935;55.672;37.764;2023-03-03T06:27:47;12.70;;;4.63;;
26191;SDS011;13935;55.672;37.764;2023-03-03T06:28:49;12.85;;;3.70;;
26191;SDS011;13935;55.672;37.764;2023-03-03T06:29:59;10.98;;;3.90;;
26191;SDS011;13935;55.672;37.764;2023-03-03T06:31:03;11.73;;;3.80;;
26191;SDS011;13935;55.672;37.764;2023-03-03T06:32:16;12.20;;;3.72;;
26191;SDS011;13935;55.672;37.764;2023-03-03T06:33:25;10.75;;;3.47;;
26191;SDS011;13935;55.672;37.764;2023-03-03T06:34:30;9.85;;;3.67;;
26191;SDS011;13935;55.672;37.764;2023-03-03T06:35:37;9.80;;;3.50;;
26191;SDS011;13935;55.672;37.764;2023-03-03T06:37:14;10.82;;;3.30;;
26191;SDS011;13935;55.672;37.764;2023-03-03T06:38:19;10.60;;;3.28;;
26191;SDS011;13935;55.672;37.764;2023-03-03T06:39:25;11.85;;;3.30;;
26191;SDS011;13935;55.672;37.764;2023-03-03T06:40:31;12.90;;;3.70;;
26191;SDS011;13935;55.672;37.764;2023-03-03T06:41:36;8.10;;;3.03;;
26191;SDS011;13935;55.672;37.764;2023-03-03T06:42:45;11.73;;;3.47;;
26191;SDS011;13935;55.672;37.764;2023-03-03T06:44:12;8.63;;;2.90;;
26191;SDS011;13935;55.672;37.764;2023-03-03T06:45:20;11.20;;;3.15;;
26191;SDS011;13935;55.672;37.764;2023-03-03T06:46:27;11.73;;;3.35;;
26191;SDS011;13935;55.672;37.764;2023-03-03T06:47:31;13.18;;;3.53;;
26191;SDS011;13935;55.672;37.764;2023-03-03T06:48:35;11.13;;;3.30;;
26191;SDS011;13935;55.672;37.764;2023-03-03T06:49:43;14.63;;;3.92;;
26191;SDS011;13935;55.672;37.764;2023-03-03T06:50:48;13.05;;;3.70;;
26191;SDS011;13935;55.672;37.764;2023-03-03T06:51:52;11.30;;;3.35;;
26191;SDS011;13935;55.672;37.764;2023-03-03T06:53:01;13.25;;;3.95;;
26191;SDS011;13935;55.672;37.764;2023-03-03T06:54:20;11.00;;;3.33;;
26191;SDS011;13935;55.672;37.764;2023-03-03T06:55:32;13.82;;;3.78;;
26191;SDS011;13935;55.672;37.764;2023-03-03T06:56:39;10.23;;;3.58;;
26191;SDS011;13935;55.672;37.764;2023-03-03T06:57:44;10.07;;;3.53;;
26191;SDS011;13935;55.672;37.764;2023-03-03T06:58:48;11.93;;;3.33;;
26191;SDS011;13935;55.672;37.764;2023-03-03T06:59:53;10.63;;;4.13;;
26191;SDS011;13935;55.672;37.764;2023-03-03T07:00:59;12.82;;;4.70;;
26191;SDS011;13935;55.672;37.764;2023-03-03T07:02:06;10.73;;;3.90;;
26191;SDS011;13935;55.672;37.764;2023-03-03T07:04:33;13.90;;;4.00;;
26191;SDS011;13935;55.672;37.764;2023-03-03T07:05:48;10.18;;;3.63;;
26191;SDS011;13935;55.672;37.764;2023-03-03T07:08:21;15.00;;;3.90;;
26191;SDS011;13935;55.672;37.764;2023-03-03T07:09:30;12.93;;;3.90;;
26191;SDS011;13935;55.672;37.764;2023-03-03T07:10:34;14.68;;;4.05;;
26191;SDS011;13935;55.672;37.764;2023-03-03T07:11:42;16.17;;;4.40;;
26191;SDS011;13935;55.672;37.764;2023-03-03T07:12:49;12.93;;;3.58;;
26191;SDS011;13935;55.672;37.764;2023-03-03T07:13:53;10.95;;;3.97;;
26191;SDS011;13935;55.672;37.764;2023-03-03T07:15:11;16.13;;;4.20;;
26191;SDS011;13935;55.672;37.764;2023-03-03T07:16:27;11.00;;;3.85;;
26191;SDS011;13935;55.672;37.764;2023-03-03T07:17:38;14.20;;;3.72;;
26191;SDS011;13935;55.672;37.764;2023-03-03T07:18:58;11.30;;;3.53;;
26191;SDS011;13935;55.672;37.764;2023-03-03T07:20:10;11.50;;;4.00;;
26191;SDS011;13935;55.672;37.764;2023-03-03T07:22:49;11.75;;;3.92;;
26191;SDS011;13935;55.672;37.764;2023-03-03T07:24:00;8.95;;;3.45;;
26191;SDS011;13935;55.672;37.764;2023-03-03T07:25:48;11.35;;;4.03;;
26191;SDS011;13935;55.672;37.764;2023-03-03T07:26:54;14.23;;;4.00;;
26191;SDS011;13935;55.672;37.764;2023-03-03T07:28:14;14.57;;;3.75;;
26191;SDS011;13935;55.672;37.764;2023-03-03T07:29:26;14.40;;;4.20;;
26191;SDS011;13935;55.672;37.764;2023-03-03T07:30:35;16.10;;;4.35;;
26191;SDS011;13935;55.672;37.764;2023-03-03T07:31:46;9.57;;;3.45;;
26191;SDS011;13935;55.672;37.764;2023-03-03T07:32:52;11.70;;;3.33;;
26191;SDS011;13935;55.672;37.764;2023-03-03T07:34:15;11.75;;;3.40;;
26191;SDS011;13935;55.672;37.764;2023-03-03T07:35:28;9.10;;;3.65;;
26191;SDS011;13935;55.672;37.764;2023-03-03T07:36:38;11.00;;;3.15;;
26191;SDS011;13935;55.672;37.764;2023-03-03T07:37:44;11.57;;;3.28;;
26191;SDS011;13935;55.672;37.764;2023-03-03T07:38:52;11.38;;;3.83;;
26191;SDS011;13935;55.672;37.764;2023-03-03T07:40:28;11.90;;;3.75;;
26191;SDS011;13935;55.672;37.764;2023-03-03T07:41:39;11.80;;;3.88;;
26191;SDS011;13935;55.672;37.764;2023-03-03T07:42:42;13.02;;;4.35;;
26191;SDS011;13935;55.672;37.764;2023-03-03T07:46:41;11.98;;;4.03;;
26191;SDS011;13935;55.672;37.764;2023-03-03T07:47:48;9.27;;;3.20;;
26191;SDS011;13935;55.672;37.764;2023-03-03T07:48:56;14.55;;;4.57;;
26191;SDS011;13935;55.672;37.764;2023-03-03T07:50:22;12.35;;;4.20;;
26191;SDS011;13935;55.672;37.764;2023-03-03T07:51:28;13.50;;;4.40;;
26191;SDS011;13935;55.672;37.764;2023-03-03T07:52:44;10.20;;;3.00;;
26191;SDS011;13935;55.672;37.764;2023-03-03T07:53:59;6.97;;;3.13;;
26191;SDS011;13935;55.672;37.764;2023-03-03T07:55:33;13.13;;;3.97;;
26191;SDS011;13935;55.672;37.764;2023-03-03T07:56:40;13.30;;;3.35;;
26191;SDS011;13935;55.672;37.764;2023-03-03T07:57:44;9.20;;;3.38;;
26191;SDS011;13935;55.672;37.764;2023-03-03T07:58:48;11.35;;;2.92;;
26191;SDS011;13935;55.672;37.764;2023-03-03T08:04:23;12.07;;;2.97;;
26191;SDS011;13935;55.672;37.764;2023-03-03T08:05:48;8.88;;;3.45;;
26191;SDS011;13935;55.672;37.764;2023-03-03T08:07:00;8.45;;;3.35;;